sensor_id;sensor_type;location;lat;lon;timestamp;temperature;humidity
1716;DHT22;855;48.824;9.220;2022-10-31T00:00:13;13.40;94.20
1716;DHT22;855;48.824;9.220;2022-10-31T00:02:42;13.40;94.40
1716;DHT22;855;48.824;9.220;2022-10-31T00:05:09;13.30;94.60
1716;DHT22;855;48.824;9.220;2022-10-31T00:07:36;13.30;94.60
1716;DHT22;855;48.824;9.220;2022-10-31T00:10:04;13.30;94.60
1716;DHT22;855;48.824;9.220;2022-10-31T00:12:31;13.30;94.60
1716;DHT22;855;48.824;9.220;2022-10-31T00:14:57;13.20;94.70
1716;DHT22;855;48.824;9.220;2022-10-31T00:17:24;13.30;94.70
1716;DHT22;855;48.824;9.220;2022-10-31T00:19:52;13.20;94.80
1716;DHT22;855;48.824;9.220;2022-10-31T00:22:19;13.20;94.70
1716;DHT22;855;48.824;9.220;2022-10-31T00:24:46;13.20;94.60
1716;DHT22;855;48.824;9.220;2022-10-31T00:27:13;13.20;94.40
1716;DHT22;855;48.824;9.220;2022-10-31T00:29:40;13.20;94.50
1716;DHT22;855;48.824;9.220;2022-10-31T00:32:07;13.10;94.40
1716;DHT22;855;48.824;9.220;2022-10-31T00:34:34;13.10;94.40
1716;DHT22;855;48.824;9.220;2022-10-31T00:37:02;13.10;94.30
1716;DHT22;855;48.824;9.220;2022-10-31T00:39:29;13.10;94.20
1716;DHT22;855;48.824;9.220;2022-10-31T00:41:56;13.00;94.30
1716;DHT22;855;48.824;9.220;2022-10-31T00:44:23;13.00;94.40
1716;DHT22;855;48.824;9.220;2022-10-31T00:46:58;13.00;94.50
1716;DHT22;855;48.824;9.220;2022-10-31T00:49:25;13.00;94.40
1716;DHT22;855;48.824;9.220;2022-10-31T00:51:51;13.00;94.30
1716;DHT22;855;48.824;9.220;2022-10-31T00:54:26;13.00;94.20
1716;DHT22;855;48.824;9.220;2022-10-31T00:56:53;13.00;94.20
1716;DHT22;855;48.824;9.220;2022-10-31T00:59:19;12.90;94.40
1716;DHT22;855;48.824;9.220;2022-10-31T01:01:46;12.90;94.50
1716;DHT22;855;48.824;9.220;2022-10-31T01:04:13;12.90;94.60
1716;DHT22;855;48.824;9.220;2022-10-31T01:06:40;12.90;94.40
1716;DHT22;855;48.824;9.220;2022-10-31T01:09:08;12.80;94.60
1716;DHT22;855;48.824;9.220;2022-10-31T01:11:36;12.80;94.70
1716;DHT22;855;48.824;9.220;2022-10-31T01:14:03;12.80;94.80
1716;DHT22;855;48.824;9.220;2022-10-31T01:16:30;12.80;95.00
1716;DHT22;855;48.824;9.220;2022-10-31T01:18:56;12.80;95.00
1716;DHT22;855;48.824;9.220;2022-10-31T01:21:26;12.80;95.00
1716;DHT22;855;48.824;9.220;2022-10-31T01:23:54;12.80;94.90
1716;DHT22;855;48.824;9.220;2022-10-31T01:26:22;12.80;94.70
1716;DHT22;855;48.824;9.220;2022-10-31T01:28:52;12.80;94.70
1716;DHT22;855;48.824;9.220;2022-10-31T01:31:21;12.80;94.60
1716;DHT22;855;48.824;9.220;2022-10-31T01:33:48;12.80;94.70
1716;DHT22;855;48.824;9.220;2022-10-31T01:36:17;12.80;94.70
1716;DHT22;855;48.824;9.220;2022-10-31T01:38:45;12.80;94.70
1716;DHT22;855;48.824;9.220;2022-10-31T01:41:14;12.80;94.70
1716;DHT22;855;48.824;9.220;2022-10-31T01:43:48;12.80;94.70
1716;DHT22;855;48.824;9.220;2022-10-31T01:46:19;12.70;94.60
1716;DHT22;855;48.824;9.220;2022-10-31T01:48:48;12.70;94.60
1716;DHT22;855;48.824;9.220;2022-10-31T01:51:16;12.70;94.50
1716;DHT22;855;48.824;9.220;2022-10-31T01:53:44;12.70;94.50
1716;DHT22;855;48.824;9.220;2022-10-31T01:56:13;12.70;94.50
1716;DHT22;855;48.824;9.220;2022-10-31T01:58:41;12.70;94.50
1716;DHT22;855;48.824;9.220;2022-10-31T02:01:08;12.60;94.50
1716;DHT22;855;48.824;9.220;2022-10-31T02:03:37;12.60;94.60
1716;DHT22;855;48.824;9.220;2022-10-31T02:06:07;12.60;94.70
1716;DHT22;855;48.824;9.220;2022-10-31T02:08:55;12.60;94.60
1716;DHT22;855;48.824;9.220;2022-10-31T02:11:23;12.60;94.60
1716;DHT22;855;48.824;9.220;2022-10-31T02:13:50;12.60;94.60
1716;DHT22;855;48.824;9.220;2022-10-31T02:16:17;12.60;94.70
1716;DHT22;855;48.824;9.220;2022-10-31T02:18:46;12.50;94.80
1716;DHT22;855;48.824;9.220;2022-10-31T02:21:16;12.50;94.80
1716;DHT22;855;48.824;9.220;2022-10-31T02:24:13;12.50;94.90
1716;DHT22;855;48.824;9.220;2022-10-31T02:26:54;12.50;95.00
1716;DHT22;855;48.824;9.220;2022-10-31T02:33:05;12.50;95.40
1716;DHT22;855;48.824;9.220;2022-10-31T02:35:41;12.50;95.20
1716;DHT22;855;48.824;9.220;2022-10-31T02:38:21;12.50;95.20
1716;DHT22;855;48.824;9.220;2022-10-31T02:40:56;12.40;95.10
1716;DHT22;855;48.824;9.220;2022-10-31T02:43:31;12.40;95.20
1716;DHT22;855;48.824;9.220;2022-10-31T02:46:05;12.40;95.30
1716;DHT22;855;48.824;9.220;2022-10-31T02:48:47;12.40;95.30
1716;DHT22;855;48.824;9.220;2022-10-31T02:51:15;12.50;95.30
1716;DHT22;855;48.824;9.220;2022-10-31T02:53:43;12.50;95.30
1716;DHT22;855;48.824;9.220;2022-10-31T02:56:13;12.40;95.30
1716;DHT22;855;48.824;9.220;2022-10-31T02:58:43;12.40;95.20
1716;DHT22;855;48.824;9.220;2022-10-31T03:07:23;12.40;94.80
1716;DHT22;855;48.824;9.220;2022-10-31T03:09:59;12.40;94.80
1716;DHT22;855;48.824;9.220;2022-10-31T03:12:37;12.40;94.70
1716;DHT22;855;48.824;9.220;2022-10-31T03:15:12;12.40;94.90
1716;DHT22;855;48.824;9.220;2022-10-31T03:17:47;12.30;94.90
1716;DHT22;855;48.824;9.220;2022-10-31T03:20:21;12.30;95.00
1716;DHT22;855;48.824;9.220;2022-10-31T03:22:52;12.30;95.10
1716;DHT22;855;48.824;9.220;2022-10-31T03:25:21;12.30;95.10
1716;DHT22;855;48.824;9.220;2022-10-31T03:27:49;12.30;95.20
1716;DHT22;855;48.824;9.220;2022-10-31T03:30:17;12.30;95.20
1716;DHT22;855;48.824;9.220;2022-10-31T03:32:48;12.30;95.10
1716;DHT22;855;48.824;9.220;2022-10-31T03:35:17;12.30;95.30
1716;DHT22;855;48.824;9.220;2022-10-31T03:37:46;12.20;95.50
1716;DHT22;855;48.824;9.220;2022-10-31T03:40:19;12.30;95.50
1716;DHT22;855;48.824;9.220;2022-10-31T03:42:51;12.20;95.40
1716;DHT22;855;48.824;9.220;2022-10-31T03:45:21;12.20;95.30
1716;DHT22;855;48.824;9.220;2022-10-31T03:47:50;12.20;95.30
1716;DHT22;855;48.824;9.220;2022-10-31T03:50:18;12.20;95.30
1716;DHT22;855;48.824;9.220;2022-10-31T03:52:49;12.20;95.20
1716;DHT22;855;48.824;9.220;2022-10-31T03:55:25;12.20;95.20
1716;DHT22;855;48.824;9.220;2022-10-31T03:57:57;12.20;95.30
1716;DHT22;855;48.824;9.220;2022-10-31T04:00:25;12.20;95.30
1716;DHT22;855;48.824;9.220;2022-10-31T04:02:57;12.20;95.20
1716;DHT22;855;48.824;9.220;2022-10-31T04:05:24;12.10;95.30
1716;DHT22;855;48.824;9.220;2022-10-31T04:07:54;12.10;95.30
1716;DHT22;855;48.824;9.220;2022-10-31T04:10:26;12.10;95.40
1716;DHT22;855;48.824;9.220;2022-10-31T04:12:57;12.10;95.40
1716;DHT22;855;48.824;9.220;2022-10-31T04:15:26;12.10;95.40
1716;DHT22;855;48.824;9.220;2022-10-31T04:18:04;12.10;95.30
1716;DHT22;855;48.824;9.220;2022-10-31T04:20:32;12.10;95.20
1716;DHT22;855;48.824;9.220;2022-10-31T04:22:59;12.10;95.10
1716;DHT22;855;48.824;9.220;2022-10-31T04:25:28;12.00;95.20
1716;DHT22;855;48.824;9.220;2022-10-31T04:27:55;12.00;95.30
1716;DHT22;855;48.824;9.220;2022-10-31T04:30:22;12.10;95.20
1716;DHT22;855;48.824;9.220;2022-10-31T04:32:49;12.10;95.10
1716;DHT22;855;48.824;9.220;2022-10-31T04:35:15;12.10;95.10
1716;DHT22;855;48.824;9.220;2022-10-31T04:37:42;12.10;95.30
1716;DHT22;855;48.824;9.220;2022-10-31T04:40:10;12.00;95.40
1716;DHT22;855;48.824;9.220;2022-10-31T04:42:40;12.00;95.50
1716;DHT22;855;48.824;9.220;2022-10-31T04:45:08;12.00;95.40
1716;DHT22;855;48.824;9.220;2022-10-31T04:47:34;12.00;95.20
1716;DHT22;855;48.824;9.220;2022-10-31T04:50:01;12.00;95.10
1716;DHT22;855;48.824;9.220;2022-10-31T04:52:28;11.90;95.20
1716;DHT22;855;48.824;9.220;2022-10-31T04:54:55;11.90;95.20
1716;DHT22;855;48.824;9.220;2022-10-31T04:57:22;11.90;95.40
1716;DHT22;855;48.824;9.220;2022-10-31T04:59:50;11.90;95.40
1716;DHT22;855;48.824;9.220;2022-10-31T05:02:17;11.90;95.40
1716;DHT22;855;48.824;9.220;2022-10-31T05:04:43;11.90;95.30
1716;DHT22;855;48.824;9.220;2022-10-31T05:07:10;11.90;95.30
1716;DHT22;855;48.824;9.220;2022-10-31T05:09:37;11.90;95.20
1716;DHT22;855;48.824;9.220;2022-10-31T05:12:04;11.90;95.40
1716;DHT22;855;48.824;9.220;2022-10-31T05:14:31;11.90;95.40
1716;DHT22;855;48.824;9.220;2022-10-31T05:16:59;11.80;95.60
1716;DHT22;855;48.824;9.220;2022-10-31T05:19:26;11.80;95.80
1716;DHT22;855;48.824;9.220;2022-10-31T05:21:52;11.70;96.10
1716;DHT22;855;48.824;9.220;2022-10-31T05:24:19;11.80;96.30
1716;DHT22;855;48.824;9.220;2022-10-31T05:26:47;11.70;96.20
1716;DHT22;855;48.824;9.220;2022-10-31T05:29:14;11.80;96.10
1716;DHT22;855;48.824;9.220;2022-10-31T05:31:41;11.70;96.10
1716;DHT22;855;48.824;9.220;2022-10-31T05:34:09;11.70;96.10
1716;DHT22;855;48.824;9.220;2022-10-31T05:36:36;11.80;96.20
1716;DHT22;855;48.824;9.220;2022-10-31T05:39:03;11.80;96.10
1716;DHT22;855;48.824;9.220;2022-10-31T05:41:29;11.70;96.20
1716;DHT22;855;48.824;9.220;2022-10-31T05:43:56;11.70;96.40
1716;DHT22;855;48.824;9.220;2022-10-31T05:46:23;11.70;96.30
1716;DHT22;855;48.824;9.220;2022-10-31T05:48:50;11.70;96.20
1716;DHT22;855;48.824;9.220;2022-10-31T05:51:18;11.70;96.20
1716;DHT22;855;48.824;9.220;2022-10-31T05:53:46;11.60;96.40
1716;DHT22;855;48.824;9.220;2022-10-31T05:56:13;11.60;96.50
1716;DHT22;855;48.824;9.220;2022-10-31T05:58:40;11.50;96.80
1716;DHT22;855;48.824;9.220;2022-10-31T06:01:07;11.50;96.90
1716;DHT22;855;48.824;9.220;2022-10-31T06:03:33;11.50;96.80
1716;DHT22;855;48.824;9.220;2022-10-31T06:06:00;11.50;96.80
1716;DHT22;855;48.824;9.220;2022-10-31T06:08:28;11.60;96.90
1716;DHT22;855;48.824;9.220;2022-10-31T06:10:55;11.50;96.90
1716;DHT22;855;48.824;9.220;2022-10-31T06:13:22;11.60;97.00
1716;DHT22;855;48.824;9.220;2022-10-31T06:15:49;11.60;97.00
1716;DHT22;855;48.824;9.220;2022-10-31T06:18:16;11.60;97.00
1716;DHT22;855;48.824;9.220;2022-10-31T06:20:42;11.60;97.00
1716;DHT22;855;48.824;9.220;2022-10-31T06:23:09;11.60;97.30
1716;DHT22;855;48.824;9.220;2022-10-31T06:25:37;11.60;97.40
1716;DHT22;855;48.824;9.220;2022-10-31T06:28:04;11.60;97.60
1716;DHT22;855;48.824;9.220;2022-10-31T06:30:31;11.60;97.70
1716;DHT22;855;48.824;9.220;2022-10-31T06:33:02;11.70;97.80
1716;DHT22;855;48.824;9.220;2022-10-31T06:35:30;11.70;97.70
1716;DHT22;855;48.824;9.220;2022-10-31T06:38:10;11.80;97.50
1716;DHT22;855;48.824;9.220;2022-10-31T06:41:07;11.80;97.40
1716;DHT22;855;48.824;9.220;2022-10-31T06:43:34;11.80;97.40
1716;DHT22;855;48.824;9.220;2022-10-31T06:46:02;11.80;97.40
1716;DHT22;855;48.824;9.220;2022-10-31T06:48:29;11.80;97.40
1716;DHT22;855;48.824;9.220;2022-10-31T06:50:57;11.80;97.40
1716;DHT22;855;48.824;9.220;2022-10-31T06:53:25;11.90;97.40
1716;DHT22;855;48.824;9.220;2022-10-31T06:55:52;11.80;97.50
1716;DHT22;855;48.824;9.220;2022-10-31T06:58:20;11.80;97.60
1716;DHT22;855;48.824;9.220;2022-10-31T07:00:47;11.80;97.80
1716;DHT22;855;48.824;9.220;2022-10-31T07:03:14;11.80;97.90
1716;DHT22;855;48.824;9.220;2022-10-31T07:05:42;11.80;97.90
1716;DHT22;855;48.824;9.220;2022-10-31T07:08:10;11.80;98.00
1716;DHT22;855;48.824;9.220;2022-10-31T07:10:38;11.80;97.90
1716;DHT22;855;48.824;9.220;2022-10-31T07:13:08;11.90;98.10
1716;DHT22;855;48.824;9.220;2022-10-31T07:15:38;12.00;98.00
1716;DHT22;855;48.824;9.220;2022-10-31T07:18:07;12.10;97.80
1716;DHT22;855;48.824;9.220;2022-10-31T07:20:35;12.10;97.70
1716;DHT22;855;48.824;9.220;2022-10-31T07:23:02;12.20;97.50
1716;DHT22;855;48.824;9.220;2022-10-31T07:25:29;12.20;97.40
1716;DHT22;855;48.824;9.220;2022-10-31T07:27:56;12.30;97.30
1716;DHT22;855;48.824;9.220;2022-10-31T07:30:23;12.40;97.30
1716;DHT22;855;48.824;9.220;2022-10-31T07:32:51;12.40;96.90
1716;DHT22;855;48.824;9.220;2022-10-31T07:35:20;12.40;96.70
1716;DHT22;855;48.824;9.220;2022-10-31T07:37:47;12.40;96.80
1716;DHT22;855;48.824;9.220;2022-10-31T07:40:14;12.40;96.80
1716;DHT22;855;48.824;9.220;2022-10-31T07:42:42;12.40;96.60
1716;DHT22;855;48.824;9.220;2022-10-31T07:45:11;12.40;96.80
1716;DHT22;855;48.824;9.220;2022-10-31T07:47:38;12.40;96.90
1716;DHT22;855;48.824;9.220;2022-10-31T07:50:08;12.50;97.10
1716;DHT22;855;48.824;9.220;2022-10-31T07:52:35;12.50;96.70
1716;DHT22;855;48.824;9.220;2022-10-31T07:55:02;12.50;96.60
1716;DHT22;855;48.824;9.220;2022-10-31T07:57:29;12.50;96.60
1716;DHT22;855;48.824;9.220;2022-10-31T07:59:56;12.60;96.50
1716;DHT22;855;48.824;9.220;2022-10-31T08:02:24;12.80;96.40
1716;DHT22;855;48.824;9.220;2022-10-31T08:04:51;12.80;96.20
1716;DHT22;855;48.824;9.220;2022-10-31T08:07:19;12.90;95.90
1716;DHT22;855;48.824;9.220;2022-10-31T08:09:46;12.90;95.70
1716;DHT22;855;48.824;9.220;2022-10-31T08:12:13;12.90;95.80
1716;DHT22;855;48.824;9.220;2022-10-31T08:14:39;12.90;95.40
1716;DHT22;855;48.824;9.220;2022-10-31T08:17:06;13.00;95.10
1716;DHT22;855;48.824;9.220;2022-10-31T08:19:33;13.10;95.00
1716;DHT22;855;48.824;9.220;2022-10-31T08:22:00;13.10;94.60
1716;DHT22;855;48.824;9.220;2022-10-31T08:24:28;13.10;94.50
1716;DHT22;855;48.824;9.220;2022-10-31T08:26:55;13.10;94.50
1716;DHT22;855;48.824;9.220;2022-10-31T08:29:22;13.10;94.50
1716;DHT22;855;48.824;9.220;2022-10-31T08:31:48;13.20;94.40
1716;DHT22;855;48.824;9.220;2022-10-31T08:34:15;13.30;94.20
1716;DHT22;855;48.824;9.220;2022-10-31T08:36:42;13.40;94.10
1716;DHT22;855;48.824;9.220;2022-10-31T08:39:10;13.50;94.00
1716;DHT22;855;48.824;9.220;2022-10-31T08:41:38;13.70;93.80
1716;DHT22;855;48.824;9.220;2022-10-31T08:44:05;13.90;93.40
1716;DHT22;855;48.824;9.220;2022-10-31T08:46:32;14.00;93.20
1716;DHT22;855;48.824;9.220;2022-10-31T08:48:59;14.10;93.10
1716;DHT22;855;48.824;9.220;2022-10-31T08:51:26;14.20;92.70
1716;DHT22;855;48.824;9.220;2022-10-31T08:53:53;14.30;92.40
1716;DHT22;855;48.824;9.220;2022-10-31T08:56:20;14.30;92.10
1716;DHT22;855;48.824;9.220;2022-10-31T08:58:49;14.40;91.90
1716;DHT22;855;48.824;9.220;2022-10-31T09:01:16;14.40;91.60
1716;DHT22;855;48.824;9.220;2022-10-31T09:03:43;14.40;91.40
1716;DHT22;855;48.824;9.220;2022-10-31T09:06:10;14.40;91.30
1716;DHT22;855;48.824;9.220;2022-10-31T09:08:37;14.40;91.30
1716;DHT22;855;48.824;9.220;2022-10-31T09:11:04;14.40;91.40
1716;DHT22;855;48.824;9.220;2022-10-31T09:13:32;14.40;91.70
1716;DHT22;855;48.824;9.220;2022-10-31T09:16:00;14.60;91.40
1716;DHT22;855;48.824;9.220;2022-10-31T09:18:27;14.70;91.30
1716;DHT22;855;48.824;9.220;2022-10-31T09:20:54;14.80;91.00
1716;DHT22;855;48.824;9.220;2022-10-31T09:23:23;14.90;91.00
1716;DHT22;855;48.824;9.220;2022-10-31T09:25:52;15.00;90.40
1716;DHT22;855;48.824;9.220;2022-10-31T09:28:20;15.10;90.10
1716;DHT22;855;48.824;9.220;2022-10-31T09:30:48;15.10;90.10
1716;DHT22;855;48.824;9.220;2022-10-31T09:33:17;15.10;89.80
1716;DHT22;855;48.824;9.220;2022-10-31T09:35:44;15.10;89.90
1716;DHT22;855;48.824;9.220;2022-10-31T09:38:13;15.10;89.70
1716;DHT22;855;48.824;9.220;2022-10-31T09:40:43;15.10;89.90
1716;DHT22;855;48.824;9.220;2022-10-31T09:43:15;15.20;90.20
1716;DHT22;855;48.824;9.220;2022-10-31T09:45:51;15.30;89.90
1716;DHT22;855;48.824;9.220;2022-10-31T09:48:34;15.40;89.00
1716;DHT22;855;48.824;9.220;2022-10-31T09:51:06;15.50;88.70
1716;DHT22;855;48.824;9.220;2022-10-31T09:53:38;15.60;88.60
1716;DHT22;855;48.824;9.220;2022-10-31T09:56:08;15.50;88.60
1716;DHT22;855;48.824;9.220;2022-10-31T09:58:41;15.60;88.60
1716;DHT22;855;48.824;9.220;2022-10-31T10:01:23;15.70;87.90
1716;DHT22;855;48.824;9.220;2022-10-31T10:03:57;15.70;87.70
1716;DHT22;855;48.824;9.220;2022-10-31T10:06:28;15.90;87.50
1716;DHT22;855;48.824;9.220;2022-10-31T10:08:56;16.10;86.90
1716;DHT22;855;48.824;9.220;2022-10-31T10:11:39;16.20;86.70
1716;DHT22;855;48.824;9.220;2022-10-31T10:14:18;16.20;86.10
1716;DHT22;855;48.824;9.220;2022-10-31T10:16:58;16.30;85.60
1716;DHT22;855;48.824;9.220;2022-10-31T10:19:50;16.40;85.70
1716;DHT22;855;48.824;9.220;2022-10-31T10:22:25;16.60;84.60
1716;DHT22;855;48.824;9.220;2022-10-31T10:25:09;16.60;84.60
1716;DHT22;855;48.824;9.220;2022-10-31T10:27:48;16.70;84.60
1716;DHT22;855;48.824;9.220;2022-10-31T10:30:18;16.80;84.40
1716;DHT22;855;48.824;9.220;2022-10-31T10:32:47;17.00;83.60
1716;DHT22;855;48.824;9.220;2022-10-31T10:35:22;17.00;83.80
1716;DHT22;855;48.824;9.220;2022-10-31T10:37:53;17.00;83.00
1716;DHT22;855;48.824;9.220;2022-10-31T10:40:24;17.10;83.30
1716;DHT22;855;48.824;9.220;2022-10-31T10:42:59;17.20;82.90
1716;DHT22;855;48.824;9.220;2022-10-31T10:45:51;17.30;82.10
1716;DHT22;855;48.824;9.220;2022-10-31T10:48:50;17.40;81.50
1716;DHT22;855;48.824;9.220;2022-10-31T10:51:22;17.60;81.30
1716;DHT22;855;48.824;9.220;2022-10-31T10:54:00;17.70;80.00
1716;DHT22;855;48.824;9.220;2022-10-31T10:56:45;17.70;80.80
1716;DHT22;855;48.824;9.220;2022-10-31T10:59:18;17.70;80.30
1716;DHT22;855;48.824;9.220;2022-10-31T11:01:48;17.80;80.90
1716;DHT22;855;48.824;9.220;2022-10-31T11:04:26;17.90;80.50
1716;DHT22;855;48.824;9.220;2022-10-31T11:07:05;17.90;79.50
1716;DHT22;855;48.824;9.220;2022-10-31T11:09:32;17.90;78.80
1716;DHT22;855;48.824;9.220;2022-10-31T11:14:28;18.00;78.60
1716;DHT22;855;48.824;9.220;2022-10-31T11:17:07;18.00;78.60
1716;DHT22;855;48.824;9.220;2022-10-31T11:19:35;17.90;79.00
1716;DHT22;855;48.824;9.220;2022-10-31T11:22:08;18.10;79.00
1716;DHT22;855;48.824;9.220;2022-10-31T11:24:41;18.10;79.10
1716;DHT22;855;48.824;9.220;2022-10-31T11:27:14;18.20;78.70
1716;DHT22;855;48.824;9.220;2022-10-31T11:29:42;18.30;77.80
1716;DHT22;855;48.824;9.220;2022-10-31T11:32:21;18.40;78.00
1716;DHT22;855;48.824;9.220;2022-10-31T11:34:51;18.40;78.30
1716;DHT22;855;48.824;9.220;2022-10-31T11:37:22;18.50;78.70
1716;DHT22;855;48.824;9.220;2022-10-31T11:39:51;18.60;78.60
1716;DHT22;855;48.824;9.220;2022-10-31T11:42:21;18.70;77.80
1716;DHT22;855;48.824;9.220;2022-10-31T11:44:49;18.70;76.70
1716;DHT22;855;48.824;9.220;2022-10-31T11:47:22;18.70;76.40
1716;DHT22;855;48.824;9.220;2022-10-31T11:49:50;18.90;76.60
1716;DHT22;855;48.824;9.220;2022-10-31T11:52:22;19.00;76.60
1716;DHT22;855;48.824;9.220;2022-10-31T11:54:53;19.10;76.30
1716;DHT22;855;48.824;9.220;2022-10-31T11:57:26;19.30;75.60
1716;DHT22;855;48.824;9.220;2022-10-31T11:59:55;19.30;74.10
1716;DHT22;855;48.824;9.220;2022-10-31T12:02:23;19.20;74.50
1716;DHT22;855;48.824;9.220;2022-10-31T12:04:57;19.10;74.60
1716;DHT22;855;48.824;9.220;2022-10-31T12:07:27;19.20;75.90
1716;DHT22;855;48.824;9.220;2022-10-31T12:09:54;19.30;76.00
1716;DHT22;855;48.824;9.220;2022-10-31T12:12:52;19.40;75.10
1716;DHT22;855;48.824;9.220;2022-10-31T12:15:30;19.40;74.50
1716;DHT22;855;48.824;9.220;2022-10-31T12:18:16;19.50;74.90
1716;DHT22;855;48.824;9.220;2022-10-31T12:20:52;19.70;73.80
1716;DHT22;855;48.824;9.220;2022-10-31T12:23:28;19.80;73.90
1716;DHT22;855;48.824;9.220;2022-10-31T12:26:09;19.80;72.60
1716;DHT22;855;48.824;9.220;2022-10-31T12:28:57;19.90;72.70
1716;DHT22;855;48.824;9.220;2022-10-31T12:31:36;20.10;72.50
1716;DHT22;855;48.824;9.220;2022-10-31T12:34:25;20.10;71.70
1716;DHT22;855;48.824;9.220;2022-10-31T12:37:00;20.20;71.40
1716;DHT22;855;48.824;9.220;2022-10-31T12:39:38;20.30;71.30
1716;DHT22;855;48.824;9.220;2022-10-31T12:42:14;20.50;71.00
1716;DHT22;855;48.824;9.220;2022-10-31T12:45:15;20.40;70.20
1716;DHT22;855;48.824;9.220;2022-10-31T12:48:04;20.50;70.00
1716;DHT22;855;48.824;9.220;2022-10-31T12:50:47;20.60;69.70
1716;DHT22;855;48.824;9.220;2022-10-31T12:53:26;20.70;69.60
1716;DHT22;855;48.824;9.220;2022-10-31T12:56:07;20.80;69.30
1716;DHT22;855;48.824;9.220;2022-10-31T12:58:40;20.80;69.60
1716;DHT22;855;48.824;9.220;2022-10-31T13:01:13;20.90;68.90
1716;DHT22;855;48.824;9.220;2022-10-31T13:03:46;20.80;69.70
1716;DHT22;855;48.824;9.220;2022-10-31T13:06:18;20.70;70.40
1716;DHT22;855;48.824;9.220;2022-10-31T13:08:49;20.50;71.70
1716;DHT22;855;48.824;9.220;2022-10-31T13:11:21;20.40;72.60
1716;DHT22;855;48.824;9.220;2022-10-31T13:13:55;20.30;72.10
1716;DHT22;855;48.824;9.220;2022-10-31T13:16:28;20.10;73.10
1716;DHT22;855;48.824;9.220;2022-10-31T13:19:00;20.00;73.40
1716;DHT22;855;48.824;9.220;2022-10-31T13:21:36;20.10;73.80
1716;DHT22;855;48.824;9.220;2022-10-31T13:24:09;20.20;74.10
1716;DHT22;855;48.824;9.220;2022-10-31T13:26:44;20.20;74.20
1716;DHT22;855;48.824;9.220;2022-10-31T13:29:18;20.30;74.10
1716;DHT22;855;48.824;9.220;2022-10-31T13:31:46;20.40;74.10
1716;DHT22;855;48.824;9.220;2022-10-31T13:34:27;20.50;73.70
1716;DHT22;855;48.824;9.220;2022-10-31T13:37:01;20.50;73.80
1716;DHT22;855;48.824;9.220;2022-10-31T13:42:14;20.60;73.40
1716;DHT22;855;48.824;9.220;2022-10-31T13:44:42;20.70;73.70
1716;DHT22;855;48.824;9.220;2022-10-31T13:47:22;20.70;74.30
1716;DHT22;855;48.824;9.220;2022-10-31T13:49:49;20.70;73.70
1716;DHT22;855;48.824;9.220;2022-10-31T13:52:22;20.80;73.40
1716;DHT22;855;48.824;9.220;2022-10-31T13:54:51;20.80;72.60
1716;DHT22;855;48.824;9.220;2022-10-31T14:02:46;20.70;71.30
1716;DHT22;855;48.824;9.220;2022-10-31T14:12:54;20.60;71.30
1716;DHT22;855;48.824;9.220;2022-10-31T14:15:54;20.70;71.00
1716;DHT22;855;48.824;9.220;2022-10-31T14:26:30;20.70;72.50
1716;DHT22;855;48.824;9.220;2022-10-31T14:28:59;20.60;73.40
1716;DHT22;855;48.824;9.220;2022-10-31T14:31:32;20.50;74.10
1716;DHT22;855;48.824;9.220;2022-10-31T14:34:05;20.50;74.30
1716;DHT22;855;48.824;9.220;2022-10-31T14:36:46;20.60;74.10
1716;DHT22;855;48.824;9.220;2022-10-31T14:41:54;20.70;74.50
1716;DHT22;855;48.824;9.220;2022-10-31T14:44:41;20.70;74.30
1716;DHT22;855;48.824;9.220;2022-10-31T14:47:18;20.70;74.30
1716;DHT22;855;48.824;9.220;2022-10-31T14:50:12;20.80;74.10
1716;DHT22;855;48.824;9.220;2022-10-31T14:57:54;20.70;72.90
1716;DHT22;855;48.824;9.220;2022-10-31T15:00:24;20.70;73.00
1716;DHT22;855;48.824;9.220;2022-10-31T15:03:06;20.80;73.40
1716;DHT22;855;48.824;9.220;2022-10-31T15:05:35;20.70;73.50
1716;DHT22;855;48.824;9.220;2022-10-31T15:08:14;20.80;73.40
1716;DHT22;855;48.824;9.220;2022-10-31T15:10:51;20.80;73.50
1716;DHT22;855;48.824;9.220;2022-10-31T15:13:21;20.70;74.30
1716;DHT22;855;48.824;9.220;2022-10-31T15:15:49;20.70;75.30
1716;DHT22;855;48.824;9.220;2022-10-31T15:18:21;20.70;75.50
1716;DHT22;855;48.824;9.220;2022-10-31T15:20:48;20.70;75.90
1716;DHT22;855;48.824;9.220;2022-10-31T15:23:21;20.70;76.40
1716;DHT22;855;48.824;9.220;2022-10-31T15:25:49;20.60;77.00
1716;DHT22;855;48.824;9.220;2022-10-31T15:28:22;20.40;78.00
1716;DHT22;855;48.824;9.220;2022-10-31T15:30:51;20.30;78.60
1716;DHT22;855;48.824;9.220;2022-10-31T15:33:21;20.20;79.20
1716;DHT22;855;48.824;9.220;2022-10-31T15:35:56;20.20;79.60
1716;DHT22;855;48.824;9.220;2022-10-31T15:38:23;19.80;80.50
1716;DHT22;855;48.824;9.220;2022-10-31T15:40:54;19.60;81.50
1716;DHT22;855;48.824;9.220;2022-10-31T15:43:22;19.60;81.60
1716;DHT22;855;48.824;9.220;2022-10-31T15:45:50;19.60;81.20
1716;DHT22;855;48.824;9.220;2022-10-31T15:48:18;19.60;80.90
1716;DHT22;855;48.824;9.220;2022-10-31T15:50:48;19.50;81.30
1716;DHT22;855;48.824;9.220;2022-10-31T15:53:17;19.40;81.70
1716;DHT22;855;48.824;9.220;2022-10-31T15:55:50;19.30;82.10
1716;DHT22;855;48.824;9.220;2022-10-31T15:58:17;19.20;82.90
1716;DHT22;855;48.824;9.220;2022-10-31T16:00:57;18.80;84.20
1716;DHT22;855;48.824;9.220;2022-10-31T16:03:26;18.80;84.60
1716;DHT22;855;48.824;9.220;2022-10-31T16:05:54;18.70;84.60
1716;DHT22;855;48.824;9.220;2022-10-31T16:08:35;18.70;84.80
1716;DHT22;855;48.824;9.220;2022-10-31T16:11:16;18.60;84.80
1716;DHT22;855;48.824;9.220;2022-10-31T16:13:53;18.60;84.90
1716;DHT22;855;48.824;9.220;2022-10-31T16:16:22;18.20;86.50
1716;DHT22;855;48.824;9.220;2022-10-31T16:18:51;18.00;87.30
1716;DHT22;855;48.824;9.220;2022-10-31T16:21:24;17.80;87.80
1716;DHT22;855;48.824;9.220;2022-10-31T16:23:55;17.80;87.70
1716;DHT22;855;48.824;9.220;2022-10-31T16:26:23;17.70;87.80
1716;DHT22;855;48.824;9.220;2022-10-31T16:28:51;17.70;88.10
1716;DHT22;855;48.824;9.220;2022-10-31T16:31:27;17.60;88.10
1716;DHT22;855;48.824;9.220;2022-10-31T16:34:10;17.60;88.10
1716;DHT22;855;48.824;9.220;2022-10-31T16:36:39;17.50;88.20
1716;DHT22;855;48.824;9.220;2022-10-31T16:39:06;17.50;88.10
1716;DHT22;855;48.824;9.220;2022-10-31T16:41:36;17.50;88.10
1716;DHT22;855;48.824;9.220;2022-10-31T16:44:06;17.40;87.90
1716;DHT22;855;48.824;9.220;2022-10-31T16:46:34;17.40;87.90
1716;DHT22;855;48.824;9.220;2022-10-31T16:49:01;17.30;88.30
1716;DHT22;855;48.824;9.220;2022-10-31T16:51:28;17.00;89.40
1716;DHT22;855;48.824;9.220;2022-10-31T16:53:55;16.90;89.30
1716;DHT22;855;48.824;9.220;2022-10-31T16:56:27;16.60;90.50
1716;DHT22;855;48.824;9.220;2022-10-31T16:58:54;16.50;91.00
1716;DHT22;855;48.824;9.220;2022-10-31T17:01:21;16.50;90.90
1716;DHT22;855;48.824;9.220;2022-10-31T17:03:49;16.50;90.80
1716;DHT22;855;48.824;9.220;2022-10-31T17:06:16;16.50;90.80
1716;DHT22;855;48.824;9.220;2022-10-31T17:08:43;16.40;90.60
1716;DHT22;855;48.824;9.220;2022-10-31T17:11:15;16.30;91.10
1716;DHT22;855;48.824;9.220;2022-10-31T17:13:42;16.30;91.40
1716;DHT22;855;48.824;9.220;2022-10-31T17:16:12;16.30;91.20
1716;DHT22;855;48.824;9.220;2022-10-31T17:18:39;16.20;91.20
1716;DHT22;855;48.824;9.220;2022-10-31T17:21:16;16.20;91.30
1716;DHT22;855;48.824;9.220;2022-10-31T17:23:43;16.20;91.20